Time;durP1;ratioP1;P1;durP2;ratioP2;P2;SDS_P1;SDS_P2;PMS_P1;PMS_P2;Temp;Humidity;BMP_temperature;BMP_pressure;BME280_temperature;BME280_humidity;BME280_pressure;Samples;Min_cycle;Max_cycle;Signal;HPM_P1;HPM_P2
2023/03/29 00:01:48;;;;;;;;;;;6.40;99.90;;;;;;8392861;28;19932;-73
2023/03/29 00:05:56;;;;;;;;;;;6.40;99.90;;;;;;8385935;28;19980;-73
2023/03/29 00:09:58;;;;;;;;;;;6.40;99.90;;;;;;8393578;28;20015;-73
2023/03/29 00:14:00;;;;;;;;;;;6.40;99.90;;;;;;8385632;28;19925;-73
2023/03/29 00:18:01;;;;;;;;;;;6.40;99.90;;;;;;8399422;28;19924;-73
2023/03/29 00:22:06;;;;;;;;;;;6.40;99.90;;;;;;8378563;28;19948;-73
2023/03/29 00:26:08;;;;;;;;;;;6.50;99.90;;;;;;8388875;28;19924;-73
2023/03/29 00:30:10;;;;;;;;;;;6.50;99.90;;;;;;8389134;28;19951;-73
2023/03/29 00:34:11;;;;;;;;;;;6.50;99.90;;;;;;8368265;28;19931;-73
2023/03/29 00:38:13;;;;;;;;;;;6.50;99.90;;;;;;8399237;28;20406;-73
2023/03/29 00:42:15;;;;;;;;;;;6.50;99.90;;;;;;8379201;28;19924;-73
2023/03/29 00:46:17;;;;;;;;;;;6.60;99.90;;;;;;8386506;28;19932;-73
2023/03/29 00:50:21;;;;;;;;;;;6.60;99.90;;;;;;8380840;28;19925;-73
2023/03/29 00:54:23;;;;;;;;;;;6.60;99.90;;;;;;8374152;28;19924;-73
2023/03/29 00:58:37;;;;;;;;;;;6.60;99.90;;;;;;8399186;28;19992;-73
2023/03/29 01:02:38;;;;;;;;;;;6.60;99.90;;;;;;8372029;28;20288;-73
2023/03/29 01:06:42;;;;;;;;;;;6.70;99.90;;;;;;8380009;28;19925;-73
2023/03/29 01:10:48;;;;;;;;;;;6.70;99.90;;;;;;8374559;28;20368;-73
2023/03/29 01:14:52;;;;;;;;;;;6.70;99.90;;;;;;8390515;28;19963;-73
2023/03/29 01:18:57;;;;;;;;;;;6.80;99.90;;;;;;8385187;28;19932;-73
2023/03/29 01:23:01;;;;;;;;;;;6.80;99.90;;;;;;8376138;28;19935;-73
2023/03/29 01:27:15;;;;;;;;;;;6.80;99.90;;;;;;8389633;28;19980;-73
2023/03/29 01:31:21;;;;;;;;;;;6.80;99.90;;;;;;8363691;28;19929;-73
2023/03/29 01:35:31;;;;;;;;;;;6.80;99.90;;;;;;8374521;28;19986;-73
2023/03/29 01:39:33;;;;;;;;;;;6.90;99.90;;;;;;8384980;28;20442;-73
2023/03/29 01:43:40;;;;;;;;;;;6.90;99.90;;;;;;8382419;28;20311;-73
2023/03/29 01:47:45;;;;;;;;;;;6.90;99.90;;;;;;8382970;28;19931;-73
2023/03/29 01:51:50;;;;;;;;;;;6.90;99.90;;;;;;8388429;28;20327;-73
2023/03/29 01:55:54;;;;;;;;;;;7.00;99.90;;;;;;8357408;28;19932;-73
2023/03/29 01:59:56;;;;;;;;;;;7.00;99.90;;;;;;8385765;28;19986;-73
2023/03/29 02:04:01;;;;;;;;;;;7.00;99.90;;;;;;8382992;28;20372;-73
2023/03/29 02:08:04;;;;;;;;;;;7.00;99.90;;;;;;8387467;28;19924;-73
2023/03/29 02:12:07;;;;;;;;;;;7.00;99.90;;;;;;8390967;28;20247;-73
2023/03/29 02:16:11;;;;;;;;;;;7.00;99.90;;;;;;8383644;28;19935;-73
2023/03/29 02:20:18;;;;;;;;;;;7.00;99.90;;;;;;8361764;28;20589;-73
2023/03/29 02:24:21;;;;;;;;;;;7.00;99.90;;;;;;8381426;28;19976;-73
2023/03/29 02:28:23;;;;;;;;;;;7.00;99.90;;;;;;8384032;28;19924;-73
2023/03/29 02:32:38;;;;;;;;;;;7.00;99.90;;;;;;8384588;28;19947;-73
2023/03/29 02:36:45;;;;;;;;;;;7.00;99.90;;;;;;8380965;28;19925;-73
2023/03/29 02:40:47;;;;;;;;;;;7.00;99.90;;;;;;8376159;28;19928;-73
2023/03/29 02:44:50;;;;;;;;;;;7.00;99.90;;;;;;8385251;28;20011;-73
2023/03/29 02:48:53;;;;;;;;;;;7.00;99.90;;;;;;8381226;28;19983;-73
2023/03/29 02:52:58;;;;;;;;;;;7.10;99.90;;;;;;8392849;28;19979;-73
2023/03/29 02:57:02;;;;;;;;;;;7.10;99.90;;;;;;8390965;28;20411;-73
2023/03/29 03:01:05;;;;;;;;;;;7.10;99.90;;;;;;8388799;28;19925;-73
2023/03/29 03:05:08;;;;;;;;;;;7.10;99.90;;;;;;8383645;28;19928;-73
2023/03/29 03:09:09;;;;;;;;;;;7.10;99.90;;;;;;8371960;28;19929;-73
2023/03/29 03:13:11;;;;;;;;;;;7.10;99.90;;;;;;8379665;28;20304;-73
2023/03/29 03:17:13;;;;;;;;;;;7.10;99.90;;;;;;8378250;28;19925;-73
2023/03/29 03:21:14;;;;;;;;;;;7.10;99.90;;;;;;8373997;28;19940;-73
2023/03/29 03:25:20;;;;;;;;;;;7.10;99.90;;;;;;8380937;28;19931;-73
2023/03/29 03:29:23;;;;;;;;;;;7.10;99.90;;;;;;8382680;28;20407;-73
2023/03/29 03:33:26;;;;;;;;;;;7.10;99.90;;;;;;8379643;28;20393;-73
2023/03/29 03:37:28;;;;;;;;;;;7.20;99.90;;;;;;8379053;28;19924;-73
2023/03/29 03:41:29;;;;;;;;;;;7.20;99.90;;;;;;8376888;28;20002;-72
2023/03/29 03:45:31;;;;;;;;;;;7.20;99.90;;;;;;8385037;28;19969;-73
2023/03/29 03:49:32;;;;;;;;;;;7.20;99.90;;;;;;8386582;28;20254;-73
2023/03/29 03:53:34;;;;;;;;;;;7.20;99.90;;;;;;8376062;28;20448;-73
2023/03/29 03:57:36;;;;;;;;;;;7.20;99.90;;;;;;8374352;28;19996;-73
2023/03/29 04:01:42;;;;;;;;;;;7.20;99.90;;;;;;8389089;28;19932;-73
2023/03/29 04:10:54;;;;;;;;;;;7.20;99.90;;;;;;8384977;28;20358;-73
2023/03/29 04:14:56;;;;;;;;;;;7.20;99.90;;;;;;8381322;28;19968;-72
2023/03/29 04:28:58;;;;;;;;;;;7.30;99.90;;;;;;8383098;28;19998;-73
2023/03/29 04:33:00;;;;;;;;;;;7.20;99.90;;;;;;8381961;28;20406;-73
2023/03/29 04:37:01;;;;;;;;;;;7.30;99.90;;;;;;8394584;28;19928;-73
2023/03/29 04:41:07;;;;;;;;;;;7.20;99.90;;;;;;8374632;28;19971;-73
2023/03/29 04:45:10;;;;;;;;;;;7.30;99.90;;;;;;8356695;28;20019;-73
2023/03/29 04:49:11;;;;;;;;;;;7.20;99.90;;;;;;8362768;28;20048;-73
2023/03/29 04:53:13;;;;;;;;;;;7.30;99.90;;;;;;8373243;28;19954;-73
2023/03/29 04:57:15;;;;;;;;;;;7.30;99.90;;;;;;8376006;28;19925;-73
2023/03/29 05:01:18;;;;;;;;;;;7.30;99.90;;;;;;8377744;28;19940;-73
2023/03/29 05:05:20;;;;;;;;;;;7.30;99.90;;;;;;8385431;28;19924;-73
2023/03/29 05:09:22;;;;;;;;;;;7.30;99.90;;;;;;8376980;28;19954;-73
2023/03/29 05:13:24;;;;;;;;;;;7.30;99.90;;;;;;8394645;28;19924;-73
2023/03/29 05:17:26;;;;;;;;;;;7.30;99.90;;;;;;8381509;28;19934;-73
2023/03/29 05:21:27;;;;;;;;;;;7.30;99.90;;;;;;8369860;28;20004;-73
2023/03/29 05:25:29;;;;;;;;;;;7.30;99.90;;;;;;8397658;28;20007;-73
2023/03/29 05:29:31;;;;;;;;;;;7.40;99.90;;;;;;8393715;28;20027;-73
2023/03/29 05:33:34;;;;;;;;;;;7.40;99.90;;;;;;8376112;28;19968;-73
2023/03/29 05:37:37;;;;;;;;;;;7.40;99.90;;;;;;8380862;28;20209;-73
2023/03/29 05:41:40;;;;;;;;;;;7.40;99.90;;;;;;8377928;28;19963;-73
2023/03/29 05:45:42;;;;;;;;;;;7.40;99.90;;;;;;8398435;28;19939;-73
2023/03/29 05:49:45;;;;;;;;;;;7.50;99.90;;;;;;8395518;28;19924;-73
2023/03/29 05:53:46;;;;;;;;;;;7.50;99.90;;;;;;8379126;28;20303;-73
2023/03/29 05:57:48;;;;;;;;;;;7.50;99.90;;;;;;8398158;28;19935;-73
2023/03/29 06:01:50;;;;;;;;;;;7.50;99.90;;;;;;8390613;28;19967;-73
2023/03/29 06:05:57;;;;;;;;;;;7.60;99.90;;;;;;8391999;28;19924;-73
2023/03/29 06:09:59;;;;;;;;;;;7.60;99.90;;;;;;8386335;28;20382;-73
2023/03/29 06:19:05;;;;;;;;;;;7.70;99.90;;;;;;8384544;28;19963;-73
2023/03/29 06:23:07;;;;;;;;;;;7.80;99.90;;;;;;8385032;28;19925;-73
2023/03/29 06:27:09;;;;;;;;;;;7.80;99.90;;;;;;8390318;28;20287;-73
2023/03/29 06:31:11;;;;;;;;;;;7.90;99.90;;;;;;8391111;28;20286;-73
2023/03/29 06:35:13;;;;;;;;;;;7.90;99.90;;;;;;8366860;28;19947;-73
2023/03/29 06:39:15;;;;;;;;;;;8.00;99.90;;;;;;8389727;28;20011;-73
2023/03/29 06:48:20;;;;;;;;;;;8.10;99.90;;;;;;8388106;28;20398;-73
2023/03/29 06:52:22;;;;;;;;;;;8.20;99.90;;;;;;8391663;28;19971;-73
2023/03/29 06:56:24;;;;;;;;;;;8.30;99.90;;;;;;8386490;28;19956;-73
2023/03/29 07:00:28;;;;;;;;;;;8.30;99.90;;;;;;8388005;28;20372;-73
2023/03/29 07:04:31;;;;;;;;;;;8.40;99.90;;;;;;8401043;28;20383;-73
2023/03/29 07:08:34;;;;;;;;;;;8.50;99.90;;;;;;8396518;28;20584;-73
2023/03/29 07:12:35;;;;;;;;;;;8.50;99.90;;;;;;8386542;28;19935;-73
2023/03/29 07:16:37;;;;;;;;;;;8.60;99.90;;;;;;8395477;28;20023;-74
2023/03/29 07:20:40;;;;;;;;;;;8.60;99.90;;;;;;8381423;28;19932;-73
2023/03/29 07:24:42;;;;;;;;;;;8.70;99.90;;;;;;8389594;28;19932;-74
2023/03/29 07:28:44;;;;;;;;;;;8.70;99.90;;;;;;8407512;28;19928;-73
2023/03/29 07:32:45;;;;;;;;;;;8.80;99.90;;;;;;8390741;28;19924;-73
2023/03/29 07:36:47;;;;;;;;;;;8.90;99.90;;;;;;8373956;28;20299;-73
2023/03/29 07:40:49;;;;;;;;;;;8.90;99.90;;;;;;8386691;28;19931;-73
2023/03/29 07:44:50;;;;;;;;;;;9.00;99.90;;;;;;8394932;28;19924;-73
2023/03/29 07:48:52;;;;;;;;;;;9.10;99.90;;;;;;8393664;28;19931;-74
2023/03/29 07:52:55;;;;;;;;;;;9.20;99.90;;;;;;8377844;28;19932;-73
2023/03/29 07:56:57;;;;;;;;;;;9.20;99.90;;;;;;8373632;28;19936;-74
2023/03/29 08:00:59;;;;;;;;;;;9.30;99.90;;;;;;8390919;28;19933;-73
2023/03/29 08:15:08;;;;;;;;;;;9.40;99.90;;;;;;8380432;28;19958;-73
2023/03/29 08:19:09;;;;;;;;;;;9.50;99.90;;;;;;8403144;28;19924;-73
2023/03/29 08:23:11;;;;;;;;;;;9.50;99.90;;;;;;8403174;28;19925;-73
2023/03/29 08:27:13;;;;;;;;;;;9.60;99.90;;;;;;8390401;28;20295;-73
2023/03/29 08:31:15;;;;;;;;;;;9.60;99.90;;;;;;8381844;28;19938;-73
2023/03/29 08:35:17;;;;;;;;;;;9.70;99.90;;;;;;8369499;28;19924;-73
2023/03/29 08:39:18;;;;;;;;;;;9.80;99.90;;;;;;8394564;28;20311;-73
2023/03/29 08:43:43;;;;;;;;;;;9.90;99.90;;;;;;8389192;28;20027;-74
2023/03/29 08:47:51;;;;;;;;;;;10.10;99.90;;;;;;8386758;28;19963;-74
2023/03/29 08:51:59;;;;;;;;;;;10.10;99.90;;;;;;8387419;28;19977;-74
2023/03/29 08:56:03;;;;;;;;;;;10.20;99.90;;;;;;8398427;28;20364;-73
2023/03/29 09:00:05;;;;;;;;;;;10.30;99.90;;;;;;8397690;28;19925;-74
2023/03/29 09:04:12;;;;;;;;;;;10.30;99.90;;;;;;8382567;28;20399;-74
2023/03/29 09:08:16;;;;;;;;;;;10.40;99.90;;;;;;8368984;28;19924;-74
2023/03/29 09:12:17;;;;;;;;;;;10.40;99.90;;;;;;8378652;28;19925;-74
2023/03/29 09:16:25;;;;;;;;;;;10.40;99.90;;;;;;8385085;28;19928;-73
2023/03/29 09:20:30;;;;;;;;;;;10.50;99.90;;;;;;8375550;28;19932;-73
2023/03/29 09:24:50;;;;;;;;;;;10.60;99.90;;;;;;8371659;28;19925;-74
2023/03/29 09:29:01;;;;;;;;;;;10.70;99.90;;;;;;8409282;28;19936;-73
2023/03/29 09:33:06;;;;;;;;;;;10.80;99.90;;;;;;8399507;28;20330;-74
2023/03/29 09:37:20;;;;;;;;;;;10.90;99.90;;;;;;8391006;28;19924;-74
2023/03/29 09:41:25;;;;;;;;;;;10.90;99.90;;;;;;8391511;28;19931;-73
2023/03/29 09:50:39;;;;;;;;;;;11.00;99.90;;;;;;8392784;28;19974;-73
2023/03/29 09:54:41;;;;;;;;;;;11.10;99.90;;;;;;8377945;28;19970;-74
2023/03/29 09:58:45;;;;;;;;;;;11.10;99.90;;;;;;8383562;28;19931;-74
2023/03/29 10:02:51;;;;;;;;;;;11.30;99.90;;;;;;8385508;28;19932;-74
2023/03/29 10:06:53;;;;;;;;;;;11.40;99.90;;;;;;8381666;28;19971;-73
2023/03/29 10:10:59;;;;;;;;;;;11.50;99.90;;;;;;8385135;28;19935;-74
2023/03/29 10:15:02;;;;;;;;;;;11.50;99.90;;;;;;8369393;28;19932;-74
2023/03/29 10:19:25;;;;;;;;;;;11.60;99.90;;;;;;8400322;28;19925;-74
2023/03/29 10:23:31;;;;;;;;;;;11.60;99.90;;;;;;8389595;28;19960;-73
2023/03/29 10:27:33;;;;;;;;;;;11.50;99.90;;;;;;8393868;28;19960;-73
2023/03/29 10:31:40;;;;;;;;;;;11.50;99.90;;;;;;8379704;28;19964;-74
2023/03/29 10:35:42;;;;;;;;;;;11.50;99.90;;;;;;8399261;28;19925;-73
2023/03/29 10:39:45;;;;;;;;;;;11.50;99.90;;;;;;8403543;28;19957;-74
2023/03/29 10:43:49;;;;;;;;;;;11.60;99.90;;;;;;8399979;28;19928;-73
2023/03/29 10:47:53;;;;;;;;;;;11.60;99.90;;;;;;8397228;28;19979;-74
2023/03/29 10:51:54;;;;;;;;;;;11.50;99.90;;;;;;8389350;28;19924;-74
2023/03/29 10:56:02;;;;;;;;;;;11.50;99.90;;;;;;8396838;28;19928;-73
2023/03/29 11:00:07;;;;;;;;;;;11.60;99.90;;;;;;8398143;28;19932;-74
2023/03/29 11:04:21;;;;;;;;;;;11.60;99.90;;;;;;8400000;28;19984;-74
2023/03/29 11:08:32;;;;;;;;;;;11.60;99.90;;;;;;8401175;28;19924;-73
2023/03/29 11:13:03;;;;;;;;;;;11.60;99.90;;;;;;8399239;28;19993;-73
2023/03/29 11:17:13;;;;;;;;;;;11.50;99.90;;;;;;8377400;28;19940;-74
2023/03/29 11:21:38;;;;;;;;;;;11.50;99.90;;;;;;8389171;28;19986;-73
2023/03/29 11:25:47;;;;;;;;;;;11.50;99.90;;;;;;8394808;28;19975;-73
2023/03/29 11:29:49;;;;;;;;;;;11.60;99.90;;;;;;8392262;28;20348;-73
2023/03/29 11:34:02;;;;;;;;;;;11.70;99.90;;;;;;8389526;28;20458;-74
2023/03/29 11:38:04;;;;;;;;;;;11.80;99.90;;;;;;8376985;28;19963;-74
2023/03/29 11:42:20;;;;;;;;;;;11.90;99.90;;;;;;8374455;28;20371;-73
2023/03/29 11:46:33;;;;;;;;;;;12.00;99.90;;;;;;8370950;28;19924;-73
2023/03/29 11:50:44;;;;;;;;;;;12.00;99.90;;;;;;8360885;28;19982;-73
2023/03/29 11:54:58;;;;;;;;;;;12.00;99.90;;;;;;8372146;28;19931;-74
2023/03/29 11:59:04;;;;;;;;;;;12.00;99.90;;;;;;8362259;28;20349;-73
2023/03/29 12:03:09;;;;;;;;;;;12.00;99.90;;;;;;8385897;28;19935;-74
2023/03/29 12:07:18;;;;;;;;;;;12.10;99.90;;;;;;8369974;28;20011;-73
2023/03/29 12:11:29;;;;;;;;;;;12.10;99.90;;;;;;8364377;28;19932;-73
2023/03/29 12:15:35;;;;;;;;;;;12.10;99.90;;;;;;8363796;28;19931;-74
2023/03/29 12:19:40;;;;;;;;;;;12.10;99.90;;;;;;8382426;28;19967;-74
2023/03/29 12:23:44;;;;;;;;;;;12.10;99.90;;;;;;8365417;28;19994;-73
2023/03/29 12:28:06;;;;;;;;;;;12.00;99.90;;;;;;8368129;28;19929;-74
2023/03/29 12:32:08;;;;;;;;;;;11.90;99.90;;;;;;8363488;28;21414;-73
2023/03/29 12:36:30;;;;;;;;;;;11.90;99.90;;;;;;8365551;28;19995;-73
2023/03/29 12:40:43;;;;;;;;;;;12.00;99.90;;;;;;8341199;28;19928;-73
2023/03/29 12:44:49;;;;;;;;;;;12.10;99.90;;;;;;8360690;28;19925;-73
2023/03/29 12:48:56;;;;;;;;;;;12.20;99.90;;;;;;8364953;28;19925;-73
2023/03/29 12:53:03;;;;;;;;;;;12.20;99.90;;;;;;8367143;28;19932;-74
2023/03/29 12:57:23;;;;;;;;;;;12.30;99.90;;;;;;8365412;28;19941;-73
2023/03/29 13:01:26;;;;;;;;;;;12.50;99.90;;;;;;8362652;28;20381;-73
2023/03/29 13:05:30;;;;;;;;;;;12.60;99.90;;;;;;8363432;28;19925;-73
2023/03/29 13:09:36;;;;;;;;;;;12.70;99.90;;;;;;8365668;28;19978;-74
2023/03/29 13:13:39;;;;;;;;;;;12.80;99.90;;;;;;8365611;28;19968;-73
2023/03/29 13:17:47;;;;;;;;;;;12.90;99.90;;;;;;8369104;28;20380;-73
2023/03/29 13:22:12;;;;;;;;;;;13.00;99.90;;;;;;8369848;28;19936;-73
2023/03/29 13:26:22;;;;;;;;;;;13.00;99.90;;;;;;8378522;28;20016;-74
2023/03/29 13:30:29;;;;;;;;;;;13.20;99.90;;;;;;8359497;28;19939;-73
2023/03/29 13:34:31;;;;;;;;;;;13.30;99.90;;;;;;8359413;28;20414;-74
2023/03/29 13:38:42;;;;;;;;;;;13.50;99.90;;;;;;8382924;28;20373;-74
2023/03/29 13:42:54;;;;;;;;;;;13.50;99.90;;;;;;8366680;28;20015;-74
2023/03/29 13:47:01;;;;;;;;;;;13.60;99.90;;;;;;8364677;28;20002;-74
2023/03/29 13:51:18;;;;;;;;;;;13.50;99.90;;;;;;8363511;28;19925;-74
2023/03/29 13:55:22;;;;;;;;;;;13.60;99.90;;;;;;8370007;28;19936;-73
2023/03/29 13:59:35;;;;;;;;;;;13.80;99.90;;;;;;8362493;28;20824;-74
2023/03/29 14:03:43;;;;;;;;;;;13.90;99.90;;;;;;8361256;28;19976;-74
2023/03/29 14:07:46;;;;;;;;;;;14.00;99.90;;;;;;8362991;28;19964;-74
2023/03/29 14:11:48;;;;;;;;;;;14.30;99.90;;;;;;8372656;28;20019;-74
2023/03/29 14:15:56;;;;;;;;;;;14.40;99.90;;;;;;8361539;28;19937;-74
2023/03/29 14:19:58;;;;;;;;;;;14.50;99.90;;;;;;8371495;28;19936;-74
2023/03/29 14:24:00;;;;;;;;;;;14.50;99.90;;;;;;8342323;28;20047;-74
2023/03/29 14:28:11;;;;;;;;;;;14.60;99.90;;;;;;8340040;28;20272;-75
2023/03/29 14:32:15;;;;;;;;;;;14.70;99.90;;;;;;8358579;28;19932;-74
2023/03/29 14:36:17;;;;;;;;;;;14.70;99.90;;;;;;8348498;28;20027;-74
2023/03/29 14:40:19;;;;;;;;;;;14.90;99.90;;;;;;8359493;28;19925;-74
2023/03/29 14:44:21;;;;;;;;;;;14.90;99.90;;;;;;8365334;28;19935;-74
2023/03/29 14:48:23;;;;;;;;;;;14.90;99.90;;;;;;8363846;28;19979;-74
2023/03/29 14:52:25;;;;;;;;;;;15.10;99.90;;;;;;8365202;28;20019;-74
2023/03/29 14:56:27;;;;;;;;;;;15.30;99.90;;;;;;8359468;28;20288;-74
2023/03/29 15:00:41;;;;;;;;;;;15.40;99.90;;;;;;8356985;28;19975;-74
2023/03/29 15:04:42;;;;;;;;;;;15.40;99.90;;;;;;8363573;28;19933;-74
2023/03/29 15:08:45;;;;;;;;;;;15.40;99.90;;;;;;8365891;28;20028;-74
2023/03/29 15:13:00;;;;;;;;;;;15.40;99.90;;;;;;8363570;28;20335;-75
2023/03/29 15:17:04;;;;;;;;;;;15.30;99.90;;;;;;8373909;28;19940;-74
2023/03/29 15:21:06;;;;;;;;;;;15.20;99.90;;;;;;8360950;28;19931;-74
2023/03/29 15:25:17;;;;;;;;;;;15.20;99.90;;;;;;8373528;28;19964;-74
2023/03/29 15:29:22;;;;;;;;;;;15.30;99.90;;;;;;8368717;28;19931;-74
2023/03/29 15:33:30;;;;;;;;;;;15.20;99.90;;;;;;8368521;28;19975;-74
2023/03/29 15:37:32;;;;;;;;;;;15.20;99.90;;;;;;8358659;28;20261;-74
2023/03/29 15:41:34;;;;;;;;;;;15.10;99.90;;;;;;8362296;28;19928;-74
2023/03/29 15:45:36;;;;;;;;;;;15.10;99.90;;;;;;8375644;28;19931;-75
2023/03/29 15:49:37;;;;;;;;;;;15.00;99.90;;;;;;8366858;28;20011;-74
2023/03/29 15:53:39;;;;;;;;;;;15.00;99.90;;;;;;8365877;28;20015;-74
2023/03/29 15:57:44;;;;;;;;;;;14.90;99.90;;;;;;8358780;28;19975;-74
2023/03/29 16:01:46;;;;;;;;;;;14.90;99.90;;;;;;8380061;28;19929;-74
2023/03/29 16:05:47;;;;;;;;;;;14.90;99.90;;;;;;8363256;28;19940;-74
2023/03/29 16:09:49;;;;;;;;;;;14.90;99.90;;;;;;8365237;28;19925;-74
2023/03/29 16:13:51;;;;;;;;;;;14.80;99.90;;;;;;8364783;28;19928;-74
2023/03/29 16:17:53;;;;;;;;;;;14.70;99.90;;;;;;8365015;28;19925;-74
2023/03/29 16:21:54;;;;;;;;;;;14.70;99.90;;;;;;8364944;28;22218;-74
2023/03/29 16:25:58;;;;;;;;;;;14.60;99.90;;;;;;8364155;28;19968;-74
2023/03/29 16:29:59;;;;;;;;;;;14.60;99.90;;;;;;8357023;28;19936;-74
2023/03/29 16:34:01;;;;;;;;;;;14.60;99.90;;;;;;8365077;28;19972;-74
2023/03/29 16:38:03;;;;;;;;;;;14.60;99.90;;;;;;8360318;28;20934;-74
2023/03/29 16:42:05;;;;;;;;;;;14.60;99.90;;;;;;8371319;28;19940;-74
2023/03/29 16:46:10;;;;;;;;;;;14.60;99.90;;;;;;8358771;28;20403;-74
2023/03/29 16:50:16;;;;;;;;;;;14.60;99.90;;;;;;8354328;28;19939;-74
2023/03/29 16:54:18;;;;;;;;;;;14.60;99.90;;;;;;8348552;28;19924;-74
2023/03/29 16:58:20;;;;;;;;;;;14.60;99.90;;;;;;8371819;28;19928;-74
2023/03/29 17:02:21;;;;;;;;;;;14.60;99.90;;;;;;8366722;28;19928;-74
2023/03/29 17:06:23;;;;;;;;;;;14.50;99.90;;;;;;8370990;28;19971;-74
2023/03/29 17:10:25;;;;;;;;;;;14.50;99.90;;;;;;8366077;28;19972;-74
2023/03/29 17:14:26;;;;;;;;;;;14.50;99.90;;;;;;8357316;28;19972;-73
2023/03/29 17:18:28;;;;;;;;;;;14.50;99.90;;;;;;8355200;28;19971;-74
2023/03/29 17:22:30;;;;;;;;;;;14.50;99.90;;;;;;8368987;28;19925;-74
2023/03/29 17:26:31;;;;;;;;;;;14.40;99.90;;;;;;8366087;28;20028;-74
2023/03/29 17:30:33;;;;;;;;;;;14.40;99.90;;;;;;8364971;28;19925;-74
2023/03/29 17:34:36;;;;;;;;;;;14.40;99.90;;;;;;8357629;28;19925;-75
2023/03/29 17:38:37;;;;;;;;;;;14.40;99.90;;;;;;8364166;28;19925;-74
2023/03/29 17:42:40;;;;;;;;;;;14.40;99.90;;;;;;8366217;28;19964;-74
2023/03/29 17:46:41;;;;;;;;;;;14.40;99.90;;;;;;8360033;28;19939;-74
2023/03/29 17:50:43;;;;;;;;;;;14.30;99.90;;;;;;8358778;28;19924;-74
2023/03/29 17:54:45;;;;;;;;;;;14.30;99.90;;;;;;8372101;28;19940;-74
2023/03/29 17:58:48;;;;;;;;;;;14.20;99.90;;;;;;8354398;28;19932;-73
2023/03/29 18:02:49;;;;;;;;;;;14.20;99.90;;;;;;8359383;28;19979;-74
2023/03/29 18:06:51;;;;;;;;;;;14.10;99.90;;;;;;8360056;28;19925;-74
2023/03/29 18:10:52;;;;;;;;;;;14.00;99.90;;;;;;8363833;28;20300;-73
2023/03/29 18:14:58;;;;;;;;;;;14.00;99.90;;;;;;8366658;28;19982;-74
2023/03/29 18:18:59;;;;;;;;;;;13.90;99.90;;;;;;8360498;28;19960;-74
2023/03/29 18:23:02;;;;;;;;;;;13.80;99.90;;;;;;8365659;28;19936;-74
2023/03/29 18:27:03;;;;;;;;;;;13.70;99.90;;;;;;8348844;28;20004;-73
2023/03/29 18:31:05;;;;;;;;;;;13.70;99.90;;;;;;8365184;28;19925;-73
2023/03/29 18:35:07;;;;;;;;;;;13.60;99.90;;;;;;8359588;28;21078;-73
2023/03/29 18:39:08;;;;;;;;;;;13.50;99.90;;;;;;8365774;28;19928;-73
2023/03/29 18:43:10;;;;;;;;;;;13.50;99.90;;;;;;8371104;28;20351;-74
2023/03/29 18:47:11;;;;;;;;;;;13.50;99.90;;;;;;8361199;28;19933;-74
2023/03/29 18:51:13;;;;;;;;;;;13.50;99.90;;;;;;8340592;28;19971;-73
2023/03/29 18:55:15;;;;;;;;;;;13.50;99.90;;;;;;8363306;28;19928;-73
2023/03/29 18:59:17;;;;;;;;;;;13.50;99.90;;;;;;8367924;28;19925;-74
2023/03/29 19:03:19;;;;;;;;;;;13.50;99.90;;;;;;8362712;28;20323;-73
2023/03/29 19:07:21;;;;;;;;;;;13.50;99.90;;;;;;8367990;28;19947;-73
2023/03/29 19:11:23;;;;;;;;;;;13.50;99.90;;;;;;8365190;28;19925;-74
2023/03/29 19:15:26;;;;;;;;;;;13.50;99.90;;;;;;8359682;28;20335;-74
2023/03/29 19:19:27;;;;;;;;;;;13.50;99.90;;;;;;8354242;28;19954;-74
2023/03/29 19:23:29;;;;;;;;;;;13.50;99.90;;;;;;8384837;28;19925;-73
2023/03/29 19:27:31;;;;;;;;;;;13.50;99.90;;;;;;8366549;28;20005;-74
2023/03/29 19:31:36;;;;;;;;;;;13.40;99.90;;;;;;8368630;28;19924;-74
2023/03/29 19:35:38;;;;;;;;;;;13.50;99.90;;;;;;8364133;28;20031;-74
2023/03/29 19:39:40;;;;;;;;;;;13.40;99.90;;;;;;8359545;28;20341;-73
2023/03/29 19:43:42;;;;;;;;;;;13.40;99.90;;;;;;8340510;28;20059;-73
2023/03/29 19:47:46;;;;;;;;;;;13.40;99.90;;;;;;8358260;28;20280;-73
2023/03/29 19:51:48;;;;;;;;;;;13.40;99.90;;;;;;8356154;28;19963;-73
2023/03/29 19:55:49;;;;;;;;;;;13.40;99.90;;;;;;8356847;28;19972;-74
2023/03/29 19:59:52;;;;;;;;;;;13.40;99.90;;;;;;8360629;28;20163;-74
2023/03/29 20:03:55;;;;;;;;;;;13.30;99.90;;;;;;8356404;28;19972;-74
2023/03/29 20:07:56;;;;;;;;;;;13.30;99.90;;;;;;8358909;28;19932;-73
2023/03/29 20:11:58;;;;;;;;;;;13.30;99.90;;;;;;8356863;28;19929;-74
2023/03/29 20:16:00;;;;;;;;;;;13.30;99.90;;;;;;8354399;28;20717;-73
2023/03/29 20:20:07;;;;;;;;;;;13.20;99.90;;;;;;8350048;28;19964;-74
2023/03/29 20:24:08;;;;;;;;;;;13.20;99.90;;;;;;8367688;28;20365;-74
2023/03/29 20:28:11;;;;;;;;;;;13.20;99.90;;;;;;8366145;28;19925;-74
2023/03/29 20:32:13;;;;;;;;;;;13.20;99.90;;;;;;8381049;28;19929;-73
2023/03/29 20:36:21;;;;;;;;;;;13.10;99.90;;;;;;8369553;28;19928;-73
2023/03/29 20:40:23;;;;;;;;;;;13.10;99.90;;;;;;8364520;28;19928;-74
2023/03/29 20:44:27;;;;;;;;;;;13.10;99.90;;;;;;8382310;28;19994;-74
2023/03/29 20:48:31;;;;;;;;;;;13.20;99.90;;;;;;8372999;28;19925;-74
2023/03/29 20:52:34;;;;;;;;;;;13.20;99.90;;;;;;8354850;28;19924;-74
2023/03/29 20:56:38;;;;;;;;;;;13.10;99.90;;;;;;8363541;28;19929;-74
2023/03/29 21:00:40;;;;;;;;;;;13.10;99.90;;;;;;8356882;28;19947;-73
2023/03/29 21:04:42;;;;;;;;;;;13.10;99.90;;;;;;8371990;28;19928;-74
2023/03/29 21:08:45;;;;;;;;;;;13.10;99.90;;;;;;8370068;28;20447;-74
2023/03/29 21:12:49;;;;;;;;;;;13.00;99.90;;;;;;8369440;28;19925;-74
2023/03/29 21:16:52;;;;;;;;;;;13.00;99.90;;;;;;8370570;28;20309;-74
2023/03/29 21:20:53;;;;;;;;;;;13.00;99.90;;;;;;8376677;28;19963;-73
2023/03/29 21:24:55;;;;;;;;;;;13.00;99.90;;;;;;8378562;28;20368;-74
2023/03/29 21:28:57;;;;;;;;;;;13.00;99.90;;;;;;8356738;28;19925;-74
2023/03/29 21:32:59;;;;;;;;;;;13.10;99.90;;;;;;8378160;28;19969;-74
2023/03/29 21:37:01;;;;;;;;;;;13.00;99.90;;;;;;8378716;28;19947;-74
2023/03/29 21:41:02;;;;;;;;;;;13.00;99.90;;;;;;8381528;28;19929;-73
2023/03/29 21:45:05;;;;;;;;;;;13.00;99.90;;;;;;8352606;28;19952;-74
2023/03/29 21:49:06;;;;;;;;;;;13.00;99.90;;;;;;8379943;28;19955;-74
2023/03/29 21:53:08;;;;;;;;;;;13.00;99.90;;;;;;8376710;28;19972;-73
2023/03/29 21:57:10;;;;;;;;;;;13.00;99.90;;;;;;8386262;28;19964;-74
2023/03/29 22:01:12;;;;;;;;;;;13.00;99.90;;;;;;8368572;28;19988;-74
2023/03/29 22:05:15;;;;;;;;;;;13.00;99.90;;;;;;8369688;28;19925;-74
2023/03/29 22:09:16;;;;;;;;;;;13.00;99.90;;;;;;8380125;28;19932;-74
2023/03/29 22:13:18;;;;;;;;;;;13.00;99.90;;;;;;8368450;28;20024;-74
2023/03/29 22:17:19;;;;;;;;;;;13.10;99.90;;;;;;8365950;28;19925;-74
2023/03/29 22:21:22;;;;;;;;;;;13.20;99.90;;;;;;8371991;28;19931;-74
2023/03/29 22:25:24;;;;;;;;;;;13.20;99.90;;;;;;8370455;28;19947;-73
2023/03/29 22:29:25;;;;;;;;;;;13.20;99.90;;;;;;8382604;28;19967;-74
2023/03/29 22:33:27;;;;;;;;;;;13.20;99.90;;;;;;8364990;28;20391;-74
2023/03/29 22:37:28;;;;;;;;;;;13.20;99.90;;;;;;8394369;28;20399;-74
2023/03/29 22:41:30;;;;;;;;;;;13.20;99.90;;;;;;8365303;28;19933;-73
2023/03/29 22:45:32;;;;;;;;;;;13.20;99.90;;;;;;8387091;28;19928;-74
2023/03/29 22:49:34;;;;;;;;;;;13.20;99.90;;;;;;8383543;28;19925;-74
2023/03/29 22:53:35;;;;;;;;;;;13.30;99.90;;;;;;8350024;28;20082;-74
2023/03/29 22:57:37;;;;;;;;;;;13.20;99.90;;;;;;8364400;28;20023;-74
2023/03/29 23:01:39;;;;;;;;;;;13.20;99.90;;;;;;8381986;28;19925;-74
2023/03/29 23:05:40;;;;;;;;;;;13.20;99.90;;;;;;8392959;28;19939;-75
2023/03/29 23:09:42;;;;;;;;;;;13.20;99.90;;;;;;8361324;28;20440;-74
2023/03/29 23:13:47;;;;;;;;;;;13.20;99.90;;;;;;8370234;28;19964;-74
2023/03/29 23:17:49;;;;;;;;;;;13.20;99.90;;;;;;8367693;28;19928;-74
2023/03/29 23:21:51;;;;;;;;;;;13.20;99.90;;;;;;8364481;28;19933;-74
2023/03/29 23:25:54;;;;;;;;;;;13.20;99.90;;;;;;8366849;28;20295;-74
2023/03/29 23:29:58;;;;;;;;;;;13.20;99.90;;;;;;8365761;28;19956;-74
2023/03/29 23:34:00;;;;;;;;;;;13.20;99.90;;;;;;8343340;28;19948;-74
2023/03/29 23:38:02;;;;;;;;;;;13.20;99.90;;;;;;8382559;28;19939;-74
2023/03/29 23:42:04;;;;;;;;;;;13.20;99.90;;;;;;8362036;28;20346;-74
2023/03/29 23:46:06;;;;;;;;;;;13.20;99.90;;;;;;8351610;28;19956;-74
2023/03/29 23:50:10;;;;;;;;;;;13.30;99.90;;;;;;8367785;28;19924;-75
2023/03/29 23:54:14;;;;;;;;;;;13.30;99.90;;;;;;8369814;28;20296;-74
2023/03/29 23:58:15;;;;;;;;;;;13.30;99.90;;;;;;8350613;28;20015;-74
